Time;durP1;ratioP1;P1;durP2;ratioP2;P2;SDS_P1;SDS_P2;PMS_P1;PMS_P2;Temp;Humidity;BMP_temperature;BMP_pressure;BME280_temperature;BME280_humidity;BME280_pressure;Samples;Min_cycle;Max_cycle;Signal;HPM_P1;HPM_P2
2023/09/02 00:00:06;;;;;;;10.63;9.52;;;15.40;99.90;;;-141.84;100.00;19537.44;5030540;28;20218;-59
2023/09/02 00:02:34;;;;;;;10.27;9.27;;;15.40;99.90;;;-141.84;100.00;19517.13;5022276;28;20663;-62
2023/09/02 00:05:04;;;;;;;10.13;9.13;;;15.30;99.90;;;-141.84;100.00;19494.78;5044503;28;20271;-59
2023/09/02 00:07:32;;;;;;;11.63;10.52;;;15.30;99.90;;;-141.84;100.00;19525.25;5044866;28;20283;-60
2023/09/02 00:10:00;;;;;;;11.25;10.15;;;15.20;99.90;;;-141.84;100.00;19506.97;5044316;28;20220;-60
2023/09/02 00:12:28;;;;;;;11.15;9.93;;;15.20;99.90;;;-141.84;100.00;19519.16;5044580;28;20229;-58
2023/09/02 00:14:57;;;;;;;11.40;10.30;;;15.10;99.90;;;-141.84;100.00;19557.78;5039792;28;20236;-60
2023/09/02 00:17:25;;;;;;;11.60;10.50;;;15.10;99.90;;;-141.84;100.00;19590.28;5040823;28;20229;-59
2023/09/02 00:19:53;;;;;;;11.88;10.68;;;15.10;99.90;;;-141.84;100.00;19598.41;5024156;28;20325;-59
2023/09/02 00:22:23;;;;;;;11.85;10.65;;;15.10;99.90;;;-141.84;100.00;19551.69;5024543;28;20634;-59
2023/09/02 00:24:51;;;;;;;12.07;10.88;;;15.00;99.90;;;-141.84;100.00;19559.81;5029326;28;20233;-59
2023/09/02 00:27:19;;;;;;;12.15;10.80;;;15.00;99.90;;;-141.84;100.00;19578.09;5023845;28;20250;-58
2023/09/02 00:29:48;;;;;;;12.48;10.93;;;15.00;99.90;;;-141.84;100.00;19561.84;5025037;28;20245;-60
2023/09/02 00:32:16;;;;;;;11.57;10.48;;;15.00;99.90;;;-141.84;100.00;19606.53;5024100;28;20345;-60
2023/09/02 00:34:45;;;;;;;11.73;10.52;;;15.00;99.90;;;-141.84;100.00;19594.34;5017015;28;20256;-59
2023/09/02 00:37:13;;;;;;;12.32;10.85;;;15.00;99.90;;;-141.84;100.00;19549.63;5024339;28;20317;-60
2023/09/02 00:39:43;;;;;;;14.07;12.57;;;14.90;99.90;;;-141.84;100.00;19578.09;5023945;28;20254;-59
2023/09/02 00:42:14;;;;;;;13.63;12.23;;;15.00;99.90;;;-141.84;100.00;19578.09;5024567;28;20330;-68
2023/09/02 00:44:43;;;;;;;13.90;12.43;;;14.90;99.90;;;-141.84;100.00;19511.03;5025664;28;20316;-66
2023/09/02 00:47:11;;;;;;;14.32;12.80;;;15.00;99.90;;;-141.84;100.00;19586.22;5023726;28;20245;-66
2023/09/02 00:49:39;;;;;;;15.25;13.13;;;15.00;99.90;;;-141.84;100.00;19537.44;5028188;28;20317;-65
2023/09/02 00:52:07;;;;;;;18.45;14.35;;;15.00;99.90;;;-141.84;100.00;19578.09;5043906;28;20221;-66
2023/09/02 00:54:36;;;;;;;18.73;14.05;;;15.00;99.90;;;-141.84;100.00;19529.31;5036215;28;20286;-65
2023/09/02 00:57:07;;;;;;;17.88;13.98;;;15.10;99.90;;;-141.84;100.00;19525.25;5023338;28;20308;-65
2023/09/02 00:59:35;;;;;;;16.52;13.50;;;15.10;99.90;;;-141.84;100.00;19521.19;5024433;28;20317;-66
2023/09/02 01:02:06;;;;;;;16.10;13.20;;;15.20;99.90;;;-141.84;100.00;19523.22;5024147;28;20242;-66
2023/09/02 01:04:35;;;;;;;15.85;12.55;;;15.20;99.90;;;-141.84;100.00;19494.78;5018846;28;20729;-64
2023/09/02 01:07:04;;;;;;;17.02;12.82;;;15.20;99.90;;;-141.84;100.00;19450.06;5043618;28;20644;-66
2023/09/02 01:09:33;;;;;;;18.58;13.27;;;15.20;99.90;;;-141.84;100.00;19441.94;5043477;28;20656;-66
2023/09/02 01:12:01;;;;;;;16.30;12.70;;;15.20;99.90;;;-141.84;100.00;19439.91;5042895;28;20333;-65
2023/09/02 01:14:31;;;;;;;14.70;12.70;;;15.20;99.90;;;-141.84;100.00;19450.06;5044093;28;20283;-66
2023/09/02 01:16:59;;;;;;;13.85;11.90;;;15.00;99.90;;;-141.84;100.00;19460.22;5041843;28;20324;-66
2023/09/02 01:19:29;;;;;;;19.80;11.93;;;15.20;99.90;;;-141.84;100.00;19480.53;5024033;28;20241;-65
2023/09/02 01:22:33;;;;;;;11.57;10.38;;;15.20;99.90;;;-141.84;100.00;19466.31;5023524;28;20756;-65
2023/09/02 01:25:15;;;;;;;17.23;11.10;;;15.20;99.90;;;-141.84;100.00;19448.03;5034207;28;20260;-65
2023/09/02 01:27:52;;;;;;;37.53;11.65;;;15.20;99.90;;;-141.84;100.00;19472.41;5026620;28;20225;-65
2023/09/02 01:30:26;;;;;;;21.30;10.18;;;15.20;99.90;;;-141.84;100.00;19478.50;5007409;28;20250;-65
2023/09/02 01:32:57;;;;;;;22.70;11.70;;;15.10;99.90;;;-141.84;100.00;19480.53;5000905;28;20199;-66
2023/09/02 01:35:30;;;;;;;10.48;9.45;;;15.10;99.90;;;-141.84;100.00;19515.09;5008291;28;20265;-66
2023/09/02 01:38:00;;;;;;;10.02;9.02;;;15.10;99.90;;;-141.84;100.00;19533.38;5007181;28;20321;-65
2023/09/02 01:40:30;;;;;;;9.75;8.65;;;15.00;99.90;;;-141.84;100.00;19472.41;5013930;28;20221;-65
2023/09/02 01:43:01;;;;;;;13.45;9.50;;;15.00;99.90;;;-141.84;100.00;19476.47;5031303;28;20233;-65
2023/09/02 01:45:34;;;;;;;12.30;9.48;;;15.00;99.90;;;-141.84;100.00;19496.81;5046930;28;20652;-66
2023/09/02 01:48:04;;;;;;;13.88;10.15;;;15.00;99.90;;;-141.84;100.00;19452.09;5047113;28;20286;-67
2023/09/02 01:50:34;;;;;;;20.13;9.82;;;15.00;99.90;;;-141.84;100.00;19488.69;5043236;28;20201;-64
2023/09/02 01:53:04;;;;;;;13.35;9.38;;;15.00;99.90;;;-141.84;100.00;19486.66;5028805;28;20226;-65
2023/09/02 01:55:33;;;;;;;12.15;9.35;;;15.00;99.90;;;-141.84;100.00;19472.41;5026183;28;20276;-67
2023/09/02 01:58:03;;;;;;;12.93;9.10;;;15.00;99.90;;;-141.84;100.00;19519.16;5026592;28;20280;-65
2023/09/02 02:00:32;;;;;;;9.73;8.50;;;15.00;99.90;;;-141.84;100.00;19486.66;5024391;28;20315;-64
2023/09/02 02:03:04;;;;;;;9.48;8.45;;;15.00;99.90;;;-141.84;100.00;19533.38;5035017;28;20329;-66
2023/09/02 02:05:42;;;;;;;8.75;7.95;;;15.00;99.90;;;-141.84;100.00;19484.59;5047070;28;20727;-65
2023/09/02 02:08:17;;;;;;;11.02;8.50;;;15.00;99.90;;;-141.84;100.00;19478.50;5046649;28;20278;-66
2023/09/02 02:10:48;;;;;;;11.65;8.07;;;14.90;99.90;;;-141.84;100.00;19456.16;5039347;28;20264;-66
2023/09/02 02:13:18;;;;;;;10.98;7.50;;;14.90;99.90;;;-141.84;100.00;19466.31;5046551;28;20268;-66
2023/09/02 02:15:47;;;;;;;11.00;9.05;;;14.90;99.90;;;-141.84;100.00;19427.72;5046567;28;20692;-66
2023/09/02 02:18:15;;;;;;;8.93;8.07;;;14.80;99.90;;;-141.84;100.00;19470.38;5036182;28;20222;-65
2023/09/02 02:20:56;;;;;;;8.57;7.65;;;14.90;99.90;;;-141.84;100.00;19411.44;5019721;28;20325;-65
2023/09/02 02:23:24;;;;;;;10.18;8.15;;;14.80;99.90;;;-141.84;100.00;19464.28;5027556;28;20669;-65
2023/09/02 02:25:53;;;;;;;8.57;7.68;;;14.60;99.90;;;-141.84;100.00;19472.41;5018602;28;20599;-57
2023/09/02 02:28:22;;;;;;;12.25;8.65;;;14.70;99.90;;;-141.84;100.00;19435.84;5006506;28;20226;-60
2023/09/02 02:30:50;;;;;;;8.80;7.90;;;14.70;99.90;;;-141.84;100.00;19494.78;4999578;28;20270;-59
2023/09/02 02:33:19;;;;;;;8.45;7.65;;;14.60;99.90;;;-141.84;100.00;19466.31;5010440;28;20295;-59
2023/09/02 02:35:47;;;;;;;11.00;8.48;;;14.60;99.90;;;-141.84;100.00;19441.94;5026635;28;20590;-59
2023/09/02 02:38:15;;;;;;;12.13;8.65;;;14.50;99.90;;;-141.84;100.00;19439.91;5026254;28;20748;-61
2023/09/02 02:40:43;;;;;;;8.75;7.85;;;14.50;99.90;;;-141.84;100.00;19452.09;5018807;28;20321;-61
2023/09/02 02:43:12;;;;;;;8.55;7.65;;;14.50;99.90;;;-141.84;100.00;19480.53;5038304;28;20233;-59
2023/09/02 02:45:42;;;;;;;9.50;7.88;;;14.50;99.90;;;-141.84;100.00;19480.53;5043980;28;20750;-59
2023/09/02 02:48:15;;;;;;;8.38;7.47;;;14.40;99.90;;;-141.84;100.00;19480.53;5037483;28;20210;-60
2023/09/02 02:50:44;;;;;;;9.57;7.30;;;14.30;99.90;;;-141.84;100.00;19464.28;5019613;28;20704;-59
2023/09/02 02:53:12;;;;;;;7.30;6.25;;;14.30;99.90;;;-141.84;100.00;19476.47;5026649;28;20257;-60
2023/09/02 02:55:41;;;;;;;6.60;6.00;;;14.20;99.90;;;-141.84;100.00;19441.94;5045845;28;20240;-59
2023/09/02 02:58:09;;;;;;;8.13;6.68;;;14.20;99.90;;;-141.84;100.00;19472.41;5045584;28;20237;-59
2023/09/02 03:00:39;;;;;;;8.35;6.57;;;14.20;99.90;;;-141.84;100.00;19460.22;5025994;28;20317;-59
2023/09/02 03:03:09;;;;;;;7.40;6.65;;;14.20;99.90;;;-141.84;100.00;19504.94;5034976;28;20209;-58
2023/09/02 03:05:37;;;;;;;9.10;7.60;;;14.20;99.90;;;-141.84;100.00;19511.03;5046449;28;20213;-59
2023/09/02 03:08:06;;;;;;;7.63;6.82;;;14.20;99.90;;;-141.84;100.00;19500.88;5045054;28;20299;-59
2023/09/02 03:10:35;;;;;;;8.77;6.78;;;14.20;99.90;;;-141.84;100.00;19541.50;5038761;28;20324;-58
2023/09/02 03:13:05;;;;;;;8.73;7.40;;;14.30;99.90;;;-141.84;100.00;19490.72;5045540;28;20332;-59
2023/09/02 03:15:33;;;;;;;9.20;7.93;;;14.40;99.90;;;-141.84;100.00;19525.25;5033958;28;20225;-60
2023/09/02 03:18:02;;;;;;;9.68;7.60;;;14.40;99.90;;;-141.84;100.00;19468.34;5025662;28;20237;-59
2023/09/02 03:20:33;;;;;;;10.30;7.70;;;14.40;99.90;;;-141.84;100.00;19466.31;5025766;28;20245;-59
2023/09/02 03:23:04;;;;;;;8.60;7.70;;;14.40;99.90;;;-141.84;100.00;19498.84;5025574;28;20662;-58
2023/09/02 03:25:34;;;;;;;9.55;8.55;;;14.50;99.90;;;-141.84;100.00;19472.41;5013462;28;20237;-58
2023/09/02 03:28:02;;;;;;;8.38;7.18;;;14.50;99.90;;;-141.84;100.00;19484.59;5025222;28;20225;-59
2023/09/02 03:30:31;;;;;;;8.95;7.35;;;14.50;99.90;;;-141.84;100.00;19474.44;5023779;28;20252;-58
2023/09/02 03:33:00;;;;;;;7.75;6.95;;;14.40;99.90;;;-141.84;100.00;19515.09;5023601;28;20221;-58
2023/09/02 03:35:28;;;;;;;9.02;7.70;;;14.50;99.90;;;-141.84;100.00;19484.59;5025477;28;20210;-60
2023/09/02 03:37:57;;;;;;;7.90;7.10;;;14.50;99.90;;;-141.84;100.00;19574.03;5024862;28;20239;-59
2023/09/02 03:40:26;;;;;;;7.82;6.85;;;14.50;99.90;;;-141.84;100.00;19494.78;5044727;28;20237;-59
2023/09/02 03:42:55;;;;;;;8.65;7.75;;;14.50;99.90;;;-141.84;100.00;19523.22;5038044;28;20312;-59
2023/09/02 03:45:23;;;;;;;9.00;7.65;;;14.50;99.90;;;-141.84;100.00;19517.13;5028406;28;20309;-65
2023/09/02 03:47:51;;;;;;;8.48;7.57;;;14.50;99.90;;;-141.84;100.00;19543.53;5025312;28;20689;-66
2023/09/02 03:50:28;;;;;;;9.95;7.53;;;14.50;99.90;;;-141.84;100.00;19576.06;5024689;28;20308;-66
2023/09/02 03:52:57;;;;;;;9.55;7.75;;;14.50;99.90;;;-141.84;100.00;19563.88;5019736;28;20234;-65
2023/09/02 03:55:25;;;;;;;8.18;7.32;;;14.50;99.90;;;-141.84;100.00;19541.50;5042791;28;20291;-65
2023/09/02 03:57:54;;;;;;;9.35;7.72;;;14.50;99.90;;;-141.84;100.00;19582.16;5024909;28;20276;-66
2023/09/02 04:00:23;;;;;;;8.48;7.60;;;14.50;99.90;;;-141.84;100.00;19551.69;5025132;28;20284;-66
2023/09/02 04:02:51;;;;;;;9.98;8.57;;;14.50;99.90;;;-141.84;100.00;19594.34;5025022;28;20221;-65
2023/09/02 04:05:19;;;;;;;9.10;8.20;;;14.50;99.90;;;-141.84;100.00;19586.22;5044873;28;20648;-66
2023/09/02 04:07:47;;;;;;;9.05;8.15;;;14.60;99.90;;;-141.84;100.00;19616.72;5044568;28;20643;-65
2023/09/02 04:10:17;;;;;;;10.45;8.55;;;14.50;99.90;;;-141.84;100.00;19604.50;5044310;28;20320;-68
2023/09/02 04:12:45;;;;;;;9.07;8.13;;;14.60;99.90;;;-141.84;100.00;19600.44;5036803;28;20708;-66
2023/09/02 04:15:13;;;;;;;13.13;10.38;;;14.60;99.90;;;-141.84;100.00;19622.81;5036445;28;20249;-65
2023/09/02 04:17:42;;;;;;;11.48;9.80;;;14.60;99.90;;;-141.84;100.00;19630.94;5024359;28;20913;-67
2023/09/02 04:20:11;;;;;;;13.77;11.52;;;14.60;99.90;;;-141.84;100.00;19637.03;5024389;28;20349;-65
2023/09/02 04:22:39;;;;;;;13.55;10.55;;;14.60;99.90;;;-141.84;100.00;19667.50;5017310;28;20741;-65
2023/09/02 04:25:10;;;;;;;15.32;11.90;;;14.70;99.90;;;-141.84;100.00;19671.56;5035637;28;20732;-67
2023/09/02 04:27:40;;;;;;;11.73;10.02;;;14.70;99.90;;;-141.84;100.00;19669.53;5017583;28;20293;-66
2023/09/02 04:30:10;;;;;;;14.75;11.65;;;14.70;99.90;;;-141.84;100.00;19653.28;5006443;28;20725;-66
2023/09/02 04:32:38;;;;;;;15.60;11.70;;;14.70;99.90;;;-141.84;100.00;19659.38;5017834;28;20249;-66
2023/09/02 04:35:07;;;;;;;13.27;10.77;;;14.70;99.90;;;-141.84;100.00;19700.03;5032158;28;20772;-65
2023/09/02 04:37:36;;;;;;;12.68;10.68;;;14.70;99.90;;;-141.84;100.00;19742.72;5033559;28;20225;-65
2023/09/02 04:40:06;;;;;;;13.45;10.05;;;14.70;99.90;;;-141.84;100.00;19691.91;5039822;28;20237;-66
2023/09/02 04:42:35;;;;;;;11.75;10.00;;;14.70;99.90;;;-141.84;100.00;19769.13;5021590;28;20292;-66
2023/09/02 04:45:05;;;;;;;11.63;9.88;;;14.70;99.90;;;-141.84;100.00;19722.38;5043705;28;20316;-65
2023/09/02 04:47:34;;;;;;;11.35;10.13;;;14.80;99.90;;;-141.84;100.00;19726.44;5044392;28;20205;-66
2023/09/02 04:50:04;;;;;;;17.55;15.75;;;14.90;99.90;;;-141.84;100.00;19706.13;5044210;28;20312;-66
2023/09/02 04:52:32;;;;;;;24.50;22.25;;;14.80;99.90;;;-141.84;100.00;19716.28;5033438;28;20253;-64
2023/09/02 04:55:00;;;;;;;27.98;25.17;;;14.90;99.90;;;-141.84;100.00;19712.22;5037073;28;20268;-65
2023/09/02 04:57:28;;;;;;;19.98;18.20;;;14.90;99.90;;;-141.84;100.00;19695.97;5043688;28;20279;-65
2023/09/02 04:59:56;;;;;;;17.65;15.95;;;15.00;99.90;;;-141.84;100.00;19740.69;5044149;28;20292;-65
2023/09/02 05:02:26;;;;;;;15.80;14.30;;;15.00;99.90;;;-141.84;100.00;19750.84;5046992;28;20302;-66
2023/09/02 05:04:54;;;;;;;14.02;12.68;;;15.00;99.90;;;-141.84;100.00;19783.34;5040952;28;20229;-67
2023/09/02 05:07:22;;;;;;;14.07;12.77;;;15.10;99.90;;;-141.84;100.00;19777.25;5041941;28;20226;-66
2023/09/02 05:09:51;;;;;;;14.43;13.10;;;15.20;99.90;;;-141.84;100.00;19769.13;5027843;28;20221;-66
2023/09/02 05:12:20;;;;;;;13.15;11.95;;;15.20;99.90;;;-141.84;100.00;19752.88;5027444;28;20260;-66
2023/09/02 05:14:48;;;;;;;14.02;12.63;;;15.20;99.90;;;-141.84;100.00;19775.22;5021657;28;20281;-65
2023/09/02 05:17:16;;;;;;;13.60;12.30;;;15.10;99.90;;;-141.84;100.00;19848.38;5027697;28;20774;-66
2023/09/02 05:19:46;;;;;;;11.85;10.65;;;15.30;99.90;;;-141.84;100.00;19862.63;5027013;28;20237;-66
2023/09/02 05:22:14;;;;;;;11.52;10.43;;;15.30;99.90;;;-141.84;100.00;19868.72;5027262;28;20765;-66
2023/09/02 05:24:42;;;;;;;10.65;9.65;;;15.40;99.90;;;-141.84;100.00;19880.91;5032179;28;20308;-65
2023/09/02 05:27:11;;;;;;;11.05;10.00;;;15.40;99.90;;;-141.84;100.00;19893.09;5027556;28;20246;-65
2023/09/02 05:29:39;;;;;;;10.32;9.32;;;15.40;99.90;;;-141.84;99.21;19919.53;5027443;28;20304;-65
2023/09/02 05:32:09;;;;;;;12.50;9.40;;;15.50;99.90;;;-141.84;98.18;19952.03;5041510;28;20281;-65
2023/09/02 05:34:37;;;;;;;10.02;8.95;;;15.50;99.90;;;-141.84;96.29;19954.06;5040535;28;20279;-64
2023/09/02 05:37:07;;;;;;;10.07;9.07;;;15.50;99.90;;;-141.84;95.83;19992.69;5035692;28;20582;-65
2023/09/02 05:39:35;;;;;;;10.10;9.10;;;15.60;99.90;;;-141.84;94.39;20000.81;5027586;28;20317;-64
2023/09/02 05:42:04;;;;;;;11.32;10.23;;;15.60;99.90;;;-141.84;94.25;19992.69;5027301;28;20230;-65
2023/09/02 05:44:34;;;;;;;9.98;9.00;;;15.70;99.90;;;-141.84;93.81;20000.81;5003598;28;20322;-65
2023/09/02 05:47:02;;;;;;;8.93;8.13;;;15.70;99.90;;;-141.84;93.10;20006.91;5007628;28;20230;-65
2023/09/02 05:49:31;;;;;;;9.55;8.65;;;15.80;99.90;;;-141.84;93.26;20039.44;5007432;28;20757;-66
2023/09/02 05:51:59;;;;;;;10.63;9.40;;;15.90;99.90;;;-141.84;92.10;20029.28;5007621;28;20967;-66
2023/09/02 05:54:29;;;;;;;9.90;8.60;;;15.80;99.90;;;-141.84;91.68;20025.22;5029026;28;20221;-66
2023/09/02 05:56:57;;;;;;;8.80;7.90;;;15.90;99.90;;;-141.84;92.09;20035.38;5043167;28;20288;-65
2023/09/02 05:59:25;;;;;;;8.25;7.40;;;16.00;99.90;;;-141.84;92.68;20053.66;5047050;28;20709;-66
2023/09/02 06:01:56;;;;;;;8.18;7.45;;;16.10;99.90;;;-141.84;92.30;20074.00;5030691;28;20240;-65
2023/09/02 06:04:24;;;;;;;8.07;7.28;;;16.10;99.90;;;-141.84;90.78;20122.78;5031278;28;20230;-65
2023/09/02 06:06:53;;;;;;;8.20;7.40;;;16.20;99.90;;;-141.84;89.28;20122.78;5020018;28;20280;-65
2023/09/02 06:09:21;;;;;;;7.65;6.95;;;16.30;99.90;;;-141.84;87.30;20141.06;5026970;28;20763;-65
2023/09/02 06:11:50;;;;;;;6.57;5.95;;;16.30;99.90;;;-141.84;88.24;20108.53;5026488;28;20721;-65
2023/09/02 06:14:19;;;;;;;10.25;9.23;;;16.30;99.90;;;-141.84;88.99;20086.19;5026593;28;20230;-67
2023/09/02 06:16:47;;;;;;;9.20;8.30;;;16.40;99.90;;;-141.84;87.93;20126.84;5019553;28;20230;-66
2023/09/02 06:19:15;;;;;;;9.18;8.23;;;16.30;99.90;;;-141.84;87.06;20132.94;5026150;28;20236;-65
2023/09/02 06:21:45;;;;;;;7.85;7.15;;;16.40;99.90;;;-141.84;87.72;20134.97;5026184;28;20225;-67
2023/09/02 06:24:16;;;;;;;7.82;7.13;;;16.50;99.90;;;-141.84;86.89;20147.16;5034903;28;20237;-65
2023/09/02 06:26:44;;;;;;;6.95;6.28;;;16.40;99.90;;;-141.84;87.53;20122.78;5022010;28;20645;-66
2023/09/02 06:29:14;;;;;;;7.43;6.72;;;16.50;99.90;;;-141.84;86.64;20169.53;5015051;28;20235;-65
2023/09/02 06:31:42;;;;;;;7.55;6.60;;;16.50;99.90;;;-141.84;86.81;20151.22;5004031;28;20765;-65
2023/09/02 06:34:10;;;;;;;7.95;7.15;;;16.60;99.90;;;-141.84;85.79;20181.72;5006430;28;20353;-64
2023/09/02 06:36:38;;;;;;;7.60;6.80;;;16.70;99.90;;;-141.84;85.08;20212.19;4999806;28;20226;-65
2023/09/02 06:39:07;;;;;;;8.57;7.28;;;16.70;99.90;;;-141.84;84.30;20222.38;5005210;28;20211;-65
2023/09/02 06:41:35;;;;;;;7.40;6.70;;;16.80;99.90;;;-141.84;84.43;20236.59;5006616;28;20309;-65
2023/09/02 06:44:03;;;;;;;7.70;6.97;;;16.90;99.90;;;-141.84;82.69;20236.59;5005782;28;20581;-66
2023/09/02 06:46:35;;;;;;;8.05;7.05;;;16.90;99.90;;;-141.84;82.98;20228.47;4985107;28;20266;-66
2023/09/02 06:49:05;;;;;;;8.27;7.45;;;16.90;99.90;;;-141.84;83.43;20256.91;4986371;28;20652;-66
2023/09/02 06:51:33;;;;;;;7.38;6.68;;;16.90;99.90;;;-141.84;82.39;20277.25;5011420;28;20253;-65
2023/09/02 06:54:01;;;;;;;7.97;7.18;;;17.00;99.90;;;-141.84;81.71;20285.38;5045333;28;20288;-66
2023/09/02 06:56:29;;;;;;;9.25;6.95;;;17.10;99.90;;;-141.84;81.63;20297.56;5046779;28;20237;-66
2023/09/02 06:58:58;;;;;;;8.30;6.97;;;17.40;99.90;;;-141.84;80.50;20321.97;5043178;28;20290;-66
2023/09/02 07:01:26;;;;;;;6.43;5.88;;;17.30;99.90;;;-141.84;81.92;20313.84;5045943;28;20261;-65
2023/09/02 07:03:57;;;;;;;7.75;6.93;;;17.40;99.90;;;-141.84;80.99;20330.09;5045514;28;20684;-65
2023/09/02 07:06:25;;;;;;;6.72;6.07;;;17.40;99.90;;;-141.84;80.89;20330.09;5045834;28;20605;-65
2023/09/02 07:08:53;;;;;;;7.45;6.32;;;17.40;99.90;;;-141.84;80.29;20370.75;5038710;28;20233;-67
2023/09/02 07:11:21;;;;;;;7.18;6.57;;;17.50;99.90;;;-141.84;77.88;20417.50;5045972;28;20302;-67
2023/09/02 07:13:50;;;;;;;7.38;6.57;;;17.60;99.90;;;-141.84;79.12;20435.78;5045542;28;20716;-66
2023/09/02 07:16:18;;;;;;;6.78;6.18;;;17.60;99.90;;;-141.84;78.04;20425.63;5028152;28;20593;-67
2023/09/02 07:18:46;;;;;;;5.97;5.38;;;17.70;99.90;;;-141.84;78.11;20443.91;5017728;28;20583;-66
2023/09/02 07:21:21;;;;;;;6.65;5.93;;;17.80;99.90;;;-141.84;76.21;20470.34;5025516;28;20284;-65
2023/09/02 07:23:52;;;;;;;6.97;6.22;;;18.00;99.90;;;-141.84;76.69;20488.63;5032831;28;20213;-66
2023/09/02 07:26:27;;;;;;;6.90;6.20;;;18.10;99.90;;;-141.84;75.52;20576.03;5029652;28;20252;-65
2023/09/02 07:28:56;;;;;;;7.40;6.43;;;18.20;99.90;;;-141.84;76.17;20519.13;5015685;28;20234;-66
2023/09/02 07:31:24;;;;;;;8.18;6.75;;;18.30;99.90;;;-141.84;76.35;20521.16;5005430;28;20262;-66
2023/09/02 07:33:52;;;;;;;6.78;6.10;;;18.30;99.90;;;-141.84;75.93;20519.13;5005903;28;20277;-66
2023/09/02 07:36:22;;;;;;;6.53;5.93;;;18.30;99.90;;;-141.84;76.26;20569.94;5005536;28;20268;-65
2023/09/02 07:38:50;;;;;;;6.50;5.90;;;18.50;99.90;;;-141.84;75.38;20606.53;4998949;28;20285;-66
2023/09/02 07:41:18;;;;;;;6.70;6.05;;;18.60;99.90;;;-141.84;74.15;20695.97;5013047;28;20313;-66
2023/09/02 07:43:46;;;;;;;7.35;6.65;;;18.80;99.90;;;-141.84;71.76;20765.09;5009037;28;20334;-66
2023/09/02 07:46:15;;;;;;;6.97;6.38;;;18.80;99.90;;;-141.84;70.24;20811.84;5005340;28;20698;-65
2023/09/02 07:48:45;;;;;;;6.60;6.00;;;19.10;99.90;;;-141.84;70.23;20824.06;4998268;28;20583;-64
2023/09/02 07:51:13;;;;;;;6.32;5.43;;;19.20;99.90;;;-141.84;70.64;20832.19;5004890;28;20693;-66
2023/09/02 07:53:43;;;;;;;8.02;7.07;;;19.30;99.90;;;-141.84;71.26;20793.56;5009288;28;20253;-67
2023/09/02 07:56:11;;;;;;;7.35;6.65;;;19.40;99.90;;;-141.84;69.59;20880.97;5024505;28;20237;-66
2023/09/02 07:58:42;;;;;;;6.80;6.15;;;19.50;99.90;;;-141.84;70.15;20878.94;5017547;28;20230;-65
2023/09/02 08:01:10;;;;;;;8.43;7.03;;;19.50;99.90;;;-141.84;69.08;20897.25;5024716;28;20656;-65
2023/09/02 08:03:38;;;;;;;5.90;5.40;;;19.50;99.90;;;-141.84;69.62;20842.34;5031285;28;20256;-66
2023/09/02 08:06:08;;;;;;;7.68;6.97;;;19.50;99.90;;;-141.84;69.71;20899.28;5044760;28;20681;-66
2023/09/02 08:08:37;;;;;;;6.70;6.00;;;19.60;99.90;;;-141.84;70.50;20891.13;5038180;28;20205;-65
2023/09/02 08:11:07;;;;;;;7.18;6.45;;;19.80;99.90;;;-141.84;69.38;20915.53;5043688;28;20235;-67
2023/09/02 08:13:35;;;;;;;7.03;6.32;;;19.80;99.90;;;-141.84;69.57;20915.53;5042689;28;20269;-65
2023/09/02 08:16:05;;;;;;;7.72;6.35;;;19.90;99.90;;;-141.84;69.44;20933.81;5024261;28;20300;-65
2023/09/02 08:18:34;;;;;;;7.90;6.70;;;19.90;99.90;;;-141.84;70.78;20883.00;5016797;28;20221;-65
2023/09/02 08:21:02;;;;;;;7.35;6.70;;;19.80;99.90;;;-141.84;70.79;20907.41;5039882;28;20217;-66
2023/09/02 08:23:30;;;;;;;7.70;6.28;;;19.90;99.90;;;-141.84;70.77;20919.59;5044411;28;20658;-65
2023/09/02 08:25:58;;;;;;;8.77;6.80;;;20.00;99.90;;;-141.84;70.32;20931.78;5038600;28;20217;-66
2023/09/02 08:28:28;;;;;;;6.60;5.97;;;20.10;99.90;;;-141.84;68.91;20994.81;5038025;28;20606;-67
2023/09/02 08:30:56;;;;;;;7.63;6.80;;;20.10;99.90;;;-141.84;69.37;21000.91;5018345;28;20244;-67
2023/09/02 08:33:24;;;;;;;7.13;6.43;;;20.20;99.90;;;-141.84;68.40;21015.16;5024045;28;20229;-67
2023/09/02 08:35:52;;;;;;;6.95;6.25;;;20.20;99.90;;;-141.84;69.73;20992.78;5024285;28;20202;-63
2023/09/02 08:38:20;;;;;;;8.38;6.80;;;20.30;99.90;;;-141.84;69.42;20974.50;5024507;28;20206;-66
2023/09/02 08:40:53;;;;;;;6.15;5.63;;;20.30;99.90;;;-141.84;68.10;21017.19;5017084;28;20291;-66
2023/09/02 08:43:22;;;;;;;8.63;7.00;;;20.30;99.90;;;-141.84;67.47;21029.38;5041440;28;20264;-66
2023/09/02 08:45:54;;;;;;;7.28;6.35;;;20.30;99.90;;;-141.84;67.93;21004.97;5044110;28;20754;-66
2023/09/02 08:48:25;;;;;;;7.70;6.90;;;20.30;99.90;;;-141.84;67.78;20986.69;5043885;28;20221;-65
2023/09/02 08:50:56;;;;;;;6.43;5.93;;;20.20;99.90;;;-141.84;67.96;20968.38;5037231;28;20308;-65
2023/09/02 08:53:29;;;;;;;6.95;6.25;;;20.10;99.90;;;-141.84;68.01;20966.34;5044233;28;20241;-65
2023/09/02 08:56:01;;;;;;;7.60;6.82;;;20.00;99.90;;;-141.84;67.91;20980.59;5043257;28;20291;-66
2023/09/02 08:58:31;;;;;;;6.53;5.93;;;20.00;99.90;;;-141.84;68.72;20960.25;5044155;28;20256;-65
2023/09/02 09:01:01;;;;;;;5.78;5.28;;;20.00;99.90;;;-141.84;69.59;20939.94;5040305;28;20279;-66
2023/09/02 09:03:31;;;;;;;6.65;6.00;;;20.00;99.90;;;-141.84;68.68;20994.81;5042198;28;20237;-68
2023/09/02 09:06:09;;;;;;;5.78;5.28;;;20.10;99.90;;;-141.84;69.23;20996.84;5027818;28;20210;-64
2023/09/02 09:08:39;;;;;;;5.80;5.05;;;20.20;99.90;;;-141.84;69.15;20994.81;5016573;28;20213;-66
2023/09/02 09:11:09;;;;;;;4.93;4.43;;;20.30;99.90;;;-141.84;68.61;21033.44;5015668;28;20233;-66
2023/09/02 09:13:45;;;;;;;6.25;4.95;;;20.40;99.90;;;-141.84;68.61;21072.06;5023190;28;20218;-67
2023/09/02 09:16:23;;;;;;;7.18;5.50;;;20.40;99.90;;;-141.84;68.32;21078.16;5023342;28;20256;-67
2023/09/02 09:18:52;;;;;;;6.30;5.70;;;20.60;99.90;;;-141.84;66.50;21100.53;5016901;28;20221;-65
2023/09/02 09:21:20;;;;;;;4.78;4.10;;;20.70;99.90;;;-141.84;66.79;21100.53;5022772;28;20249;-67
2023/09/02 09:23:49;;;;;;;5.55;5.00;;;20.70;99.90;;;-141.84;66.13;21171.69;5029545;28;20291;-67
2023/09/02 09:26:18;;;;;;;6.28;5.68;;;20.80;99.90;;;-141.84;65.91;21175.75;5033434;28;20709;-66
2023/09/02 09:28:52;;;;;;;5.60;5.10;;;21.00;99.90;;;-141.84;66.88;21220.47;5017013;28;20256;-66
2023/09/02 09:31:22;;;;;;;6.43;5.78;;;21.10;99.90;;;-141.84;64.43;21283.50;5023918;28;20727;-66
2023/09/02 09:33:53;;;;;;;4.32;4.03;;;21.30;99.90;;;-141.84;63.93;21305.88;5024211;28;20312;-65
2023/09/02 09:36:22;;;;;;;4.07;3.70;;;21.40;99.90;;;-141.84;60.98;21407.53;5022221;28;20225;-65
2023/09/02 09:38:55;;;;;;;4.82;4.43;;;21.50;99.90;;;-141.84;60.18;21452.25;5017567;28;20729;-66
2023/09/02 09:41:25;;;;;;;4.90;4.50;;;21.60;99.90;;;-141.84;61.21;21440.06;5023510;28;20265;-67
2023/09/02 09:44:08;;;;;;;4.85;4.45;;;21.70;99.90;;;-141.84;61.81;21492.94;5023010;28;20245;-67
2023/09/02 09:46:50;;;;;;;6.50;5.95;;;21.80;99.90;;;-141.84;60.77;21492.94;5015909;28;20308;-67
2023/09/02 09:49:23;;;;;;;5.60;5.20;;;21.80;99.90;;;-141.84;61.58;21468.53;5027345;28;20257;-66
2023/09/02 09:52:08;;;;;;;3.95;3.65;;;21.90;99.90;;;-141.84;59.38;21574.25;5025970;28;20254;-66
2023/09/02 09:54:37;;;;;;;4.80;4.10;;;21.80;99.90;;;-141.84;58.47;21576.28;5031275;28;20657;-65
2023/09/02 09:57:07;;;;;;;3.85;3.55;;;21.80;99.90;;;-141.84;58.97;21596.63;5048088;28;20217;-66
2023/09/02 09:59:36;;;;;;;4.90;4.25;;;21.90;99.90;;;-141.84;59.26;21576.28;5047828;28;20245;-65
2023/09/02 10:02:07;;;;;;;5.10;4.70;;;21.80;99.90;;;-141.84;58.82;21527.50;5044960;28;20443;-66
2023/09/02 10:04:35;;;;;;;5.05;4.65;;;21.70;99.90;;;-141.84;59.08;21537.66;5040220;28;20236;-65
2023/09/02 10:07:05;;;;;;;4.85;4.45;;;21.70;99.90;;;-141.84;59.60;21558.00;5046651;28;20260;-66